Time;durP1;ratioP1;P1;durP2;ratioP2;P2;SDS_P1;SDS_P2;PMS_P1;PMS_P2;Temp;Humidity;BMP_temperature;BMP_pressure;BME280_temperature;BME280_humidity;BME280_pressure;Samples;Min_cycle;Max_cycle;Signal;HPM_P1;HPM_P2
2022/07/19 00:02:00;;;;;;;17.25;11.10;;;23.10;99.00;;;;;;5092672;28;20255;-74
2022/07/19 00:04:25;;;;;;;10.43;5.82;;;23.00;98.60;;;;;;5092292;28;20279;-74
2022/07/19 00:06:51;;;;;;;10.38;6.55;;;23.00;98.30;;;;;;5092389;28;20213;-74
2022/07/19 00:09:17;;;;;;;14.38;9.02;;;23.00;98.40;;;;;;5091887;28;20218;-74
2022/07/19 00:11:42;;;;;;;35.08;21.73;;;23.00;98.70;;;;;;5092379;28;20213;-74
2022/07/19 00:14:08;;;;;;;36.95;22.23;;;23.00;98.70;;;;;;5090946;28;20228;-75
2022/07/19 00:16:34;;;;;;;15.43;9.98;;;23.00;98.60;;;;;;5092353;28;20232;-74
2022/07/19 00:18:59;;;;;;;10.73;6.70;;;22.90;98.40;;;;;;5092096;28;20198;-75
2022/07/19 00:21:25;;;;;;;10.77;6.55;;;22.90;98.70;;;;;;5091985;28;20579;-76
2022/07/19 00:23:50;;;;;;;8.63;5.80;;;23.00;98.90;;;;;;5092552;28;20179;-73
2022/07/19 00:26:16;;;;;;;6.60;5.05;;;22.90;98.70;;;;;;5090578;28;20277;-74
2022/07/19 00:28:41;;;;;;;6.63;4.45;;;22.90;98.60;;;;;;5091318;28;20213;-73
2022/07/19 00:31:07;;;;;;;6.05;4.18;;;22.90;98.40;;;;;;5091761;28;20214;-74
2022/07/19 00:33:33;;;;;;;13.73;9.02;;;22.80;98.50;;;;;;5090610;28;20214;-73
2022/07/19 00:35:58;;;;;;;6.20;5.47;;;22.80;98.50;;;;;;5091844;28;20232;-73
2022/07/19 00:38:24;;;;;;;9.43;5.35;;;22.80;98.90;;;;;;5091595;28;20221;-77
2022/07/19 00:40:49;;;;;;;6.57;3.85;;;22.70;99.00;;;;;;5091841;28;20206;-72
2022/07/19 00:43:15;;;;;;;7.68;5.03;;;22.70;99.00;;;;;;5091852;28;20232;-74
2022/07/19 00:45:41;;;;;;;7.68;4.55;;;22.80;99.30;;;;;;5091233;28;20217;-74
2022/07/19 00:48:07;;;;;;;6.82;4.40;;;22.70;98.90;;;;;;5091278;28;20213;-73
2022/07/19 00:50:32;;;;;;;6.78;4.43;;;22.60;98.90;;;;;;5091760;28;20221;-73
2022/07/19 00:53:00;;;;;;;5.80;4.35;;;22.70;99.10;;;;;;5091818;28;20202;-72
2022/07/19 00:55:31;;;;;;;10.95;5.68;;;22.60;99.10;;;;;;5090230;28;20584;-72
2022/07/19 00:57:58;;;;;;;5.38;3.92;;;22.50;99.10;;;;;;5089917;28;20232;-76
2022/07/19 01:00:26;;;;;;;17.40;9.60;;;22.40;99.10;;;;;;5089832;28;20210;-75
2022/07/19 01:02:53;;;;;;;19.67;12.50;;;22.50;99.40;;;;;;5091909;28;20201;-74
2022/07/19 01:05:19;;;;;;;18.58;9.73;;;22.50;99.50;;;;;;5091503;28;20736;-74
2022/07/19 01:07:45;;;;;;;16.75;9.77;;;22.50;99.80;;;;;;5090872;28;20245;-73
2022/07/19 01:10:13;;;;;;;8.30;4.85;;;22.50;99.70;;;;;;5091000;28;20210;-74
2022/07/19 01:12:40;;;;;;;8.82;5.50;;;22.50;99.50;;;;;;5090967;28;20206;-74
2022/07/19 01:15:18;;;;;;;8.88;4.65;;;22.50;99.90;;;;;;5091161;28;20253;-74
2022/07/19 01:17:44;;;;;;;6.82;4.15;;;22.50;99.80;;;;;;5090286;28;20193;-73
2022/07/19 01:20:10;;;;;;;6.60;4.25;;;22.40;99.70;;;;;;5091177;28;20228;-74
2022/07/19 01:22:36;;;;;;;7.03;3.90;;;22.40;99.70;;;;;;5091089;28;20202;-74
2022/07/19 01:25:02;;;;;;;8.63;4.22;;;22.30;99.70;;;;;;5090980;28;20243;-72
2022/07/19 01:27:28;;;;;;;6.22;3.97;;;22.40;99.90;;;;;;5090727;28;20710;-72
2022/07/19 01:29:53;;;;;;;8.10;3.83;;;22.40;99.90;;;;;;5089445;28;20201;-74
2022/07/19 01:32:19;;;;;;;5.93;3.72;;;22.30;99.70;;;;;;5091292;28;20208;-74
2022/07/19 01:34:44;;;;;;;4.82;3.60;;;22.30;99.90;;;;;;5090568;28;20715;-73
2022/07/19 01:37:10;;;;;;;8.30;4.03;;;22.30;99.60;;;;;;5090988;28;20264;-74
2022/07/19 01:39:35;;;;;;;5.85;3.90;;;22.20;99.80;;;;;;5090382;28;20245;-73
2022/07/19 01:42:02;;;;;;;7.57;3.67;;;22.20;99.90;;;;;;5091109;28;20174;-73
2022/07/19 01:44:27;;;;;;;6.97;3.85;;;22.20;99.90;;;;;;5091134;28;20177;-73
2022/07/19 01:46:53;;;;;;;7.60;3.63;;;22.20;99.90;;;;;;5089517;28;20214;-74
2022/07/19 01:49:18;;;;;;;4.80;3.25;;;22.10;99.90;;;;;;5090650;28;20202;-74
2022/07/19 01:51:44;;;;;;;6.13;3.63;;;22.10;99.90;;;;;;5090358;28;20262;-73
2022/07/19 01:54:09;;;;;;;5.80;3.70;;;22.10;99.90;;;;;;5090667;28;20183;-73
2022/07/19 01:56:35;;;;;;;6.30;3.63;;;22.20;99.90;;;;;;5090773;28;20205;-75
2022/07/19 01:59:01;;;;;;;4.10;3.10;;;22.10;99.90;;;;;;5088961;28;20209;-73
2022/07/19 02:01:26;;;;;;;4.85;3.60;;;22.00;99.90;;;;;;5090485;28;20210;-74
2022/07/19 02:03:52;;;;;;;5.35;3.45;;;22.00;99.90;;;;;;5090633;28;20356;-73
2022/07/19 02:06:17;;;;;;;5.00;3.35;;;22.00;99.90;;;;;;5090382;28;20233;-74
2022/07/19 02:08:43;;;;;;;4.32;3.30;;;21.90;99.90;;;;;;5089150;28;20173;-74
2022/07/19 02:13:52;;;;;;;6.20;3.15;;;21.80;99.90;;;;;;5083107;28;20209;-73
2022/07/19 02:16:18;;;;;;;5.57;3.08;;;21.80;99.90;;;;;;5090394;28;20202;-73
2022/07/19 02:18:44;;;;;;;4.90;3.35;;;21.90;99.90;;;;;;5089889;28;20191;-74
2022/07/19 02:21:09;;;;;;;7.57;3.22;;;21.80;99.90;;;;;;5090502;28;20224;-74
2022/07/19 02:23:35;;;;;;;5.20;3.33;;;21.80;99.90;;;;;;5090496;28;20178;-74
2022/07/19 02:26:01;;;;;;;5.25;3.35;;;21.80;99.90;;;;;;5089079;28;20198;-73
2022/07/19 02:28:26;;;;;;;4.30;3.25;;;21.80;99.90;;;;;;5089458;28;20226;-73
2022/07/19 02:30:52;;;;;;;4.70;3.35;;;21.80;99.90;;;;;;5090127;28;20218;-73
2022/07/19 02:33:17;;;;;;;4.63;3.00;;;21.80;99.90;;;;;;5090194;28;20220;-75
2022/07/19 02:35:43;;;;;;;5.90;3.30;;;21.80;99.90;;;;;;5089261;28;20654;-74
2022/07/19 02:38:08;;;;;;;6.57;3.30;;;21.80;99.90;;;;;;5089894;28;20206;-74
2022/07/19 02:40:34;;;;;;;7.85;3.42;;;21.80;99.90;;;;;;5089988;28;20594;-74
2022/07/19 02:42:59;;;;;;;5.35;3.45;;;21.80;99.90;;;;;;5093353;28;20210;-74
2022/07/19 02:45:25;;;;;;;4.25;3.22;;;21.70;99.90;;;;;;5093395;28;20631;-74
2022/07/19 02:47:50;;;;;;;9.60;3.58;;;21.70;99.90;;;;;;5094096;28;20675;-74
2022/07/19 02:50:16;;;;;;;4.78;3.38;;;21.60;99.90;;;;;;5092173;28;20214;-73
2022/07/19 02:52:42;;;;;;;5.75;3.17;;;21.60;99.90;;;;;;5093856;28;20293;-74
2022/07/19 02:55:08;;;;;;;5.53;3.10;;;21.60;99.90;;;;;;5093463;28;20248;-74
2022/07/19 02:57:33;;;;;;;7.00;3.70;;;21.60;99.90;;;;;;5087223;28;20286;-77
2022/07/19 02:59:59;;;;;;;8.18;3.53;;;21.50;99.90;;;;;;5090891;28;20194;-75
2022/07/19 03:02:24;;;;;;;5.68;3.05;;;21.60;99.90;;;;;;5092164;28;20174;-75
2022/07/19 03:04:50;;;;;;;6.95;3.60;;;21.60;99.90;;;;;;5093390;28;20228;-73
2022/07/19 03:07:15;;;;;;;7.13;3.53;;;21.60;99.90;;;;;;5091644;28;20559;-75
2022/07/19 03:09:41;;;;;;;6.15;3.30;;;21.50;99.90;;;;;;5092686;28;20206;-74
2022/07/19 03:12:07;;;;;;;4.78;3.08;;;21.50;99.90;;;;;;5093268;28;20296;-73
2022/07/19 03:14:33;;;;;;;4.35;3.60;;;21.50;99.90;;;;;;5093190;28;20206;-74
2022/07/19 03:16:58;;;;;;;4.25;3.20;;;21.60;99.90;;;;;;5091570;28;20562;-76
2022/07/19 03:19:27;;;;;;;4.22;3.17;;;21.50;99.90;;;;;;5092649;28;20365;-74
2022/07/19 03:21:54;;;;;;;7.57;3.65;;;21.60;99.90;;;;;;5093024;28;20210;-75
2022/07/19 03:24:19;;;;;;;5.40;3.78;;;21.60;99.90;;;;;;5091513;28;20206;-74
2022/07/19 03:26:45;;;;;;;6.32;3.60;;;21.60;99.90;;;;;;5093094;28;20296;-74
2022/07/19 03:29:11;;;;;;;5.40;3.17;;;21.60;99.90;;;;;;5091808;28;20211;-73
2022/07/19 03:31:37;;;;;;;4.38;3.30;;;21.60;99.90;;;;;;5090981;28;20597;-73
2022/07/19 03:34:03;;;;;;;5.97;3.63;;;21.70;99.90;;;;;;5091562;28;20210;-74
2022/07/19 03:36:28;;;;;;;6.32;3.95;;;21.80;99.90;;;;;;5092321;28;20619;-74
2022/07/19 03:38:54;;;;;;;4.88;3.40;;;21.70;99.90;;;;;;5092689;28;20177;-73
2022/07/19 03:41:20;;;;;;;6.78;3.40;;;21.80;99.90;;;;;;5091218;28;20259;-75
2022/07/19 03:43:45;;;;;;;7.22;3.20;;;22.00;99.90;;;;;;5091071;28;20202;-73
2022/07/19 03:46:11;;;;;;;8.40;3.55;;;22.50;99.90;;;;;;5092531;28;20190;-74
2022/07/19 03:48:36;;;;;;;5.53;3.65;;;23.60;99.90;;;;;;5091962;28;20217;-76
2022/07/19 03:51:02;;;;;;;4.82;3.30;;;24.30;99.90;;;;;;5092169;28;20198;-75
2022/07/19 03:53:28;;;;;;;5.32;3.28;;;25.00;99.30;;;;;;5090751;28;20174;-74
2022/07/19 03:55:53;;;;;;;4.57;3.05;;;26.00;98.10;;;;;;5090963;28;20256;-75
2022/07/19 03:58:19;;;;;;;5.72;3.88;;;26.10;96.40;;;;;;5091049;28;20214;-73
2022/07/19 04:00:45;;;;;;;11.27;3.65;;;26.10;96.00;;;;;;5091924;28;20222;-73
2022/07/19 04:03:11;;;;;;;7.70;3.38;;;27.00;95.60;;;;;;5091877;28;20213;-73
2022/07/19 04:05:36;;;;;;;6.80;3.72;;;27.50;94.90;;;;;;5092297;28;20194;-74
2022/07/19 04:08:02;;;;;;;4.55;3.25;;;28.30;93.60;;;;;;5091415;28;20216;-74
2022/07/19 04:10:28;;;;;;;7.90;4.05;;;29.20;92.00;;;;;;5090373;28;20230;-77
2022/07/19 04:12:53;;;;;;;7.95;3.70;;;29.00;91.30;;;;;;5102803;22;20341;-73
2022/07/19 04:15:19;;;;;;;6.32;4.03;;;28.70;91.20;;;;;;5056152;28;20216;-72
2022/07/19 04:17:44;;;;;;;9.27;3.88;;;29.20;90.50;;;;;;5066892;28;20629;-73
2022/07/19 04:20:11;;;;;;;6.70;3.65;;;29.40;90.10;;;;;;5071440;28;20206;-73
2022/07/19 04:22:36;;;;;;;4.95;3.70;;;30.10;88.70;;;;;;5068469;28;20215;-73
2022/07/19 04:25:02;;;;;;;7.10;3.63;;;30.70;88.00;;;;;;5071344;28;20230;-70
2022/07/19 04:27:30;;;;;;;4.57;3.63;;;31.50;85.60;;;;;;5070531;28;20317;-73
2022/07/19 04:29:55;;;;;;;5.28;3.45;;;31.70;83.80;;;;;;5043338;28;20253;-72
2022/07/19 04:32:21;;;;;;;5.93;3.72;;;31.90;82.40;;;;;;5067934;28;20275;-73
2022/07/19 04:34:47;;;;;;;6.13;3.90;;;31.80;81.80;;;;;;5071127;28;20225;-74
2022/07/19 04:37:12;;;;;;;5.15;4.07;;;32.40;81.10;;;;;;5071272;28;20711;-71
2022/07/19 04:39:38;;;;;;;4.95;3.63;;;32.40;80.00;;;;;;5070381;28;20284;-71
2022/07/19 04:42:04;;;;;;;7.05;4.28;;;32.70;78.40;;;;;;5070846;28;20174;-71
2022/07/19 04:44:29;;;;;;;6.53;3.80;;;33.00;77.30;;;;;;5072557;28;20667;-71
2022/07/19 04:46:55;;;;;;;5.22;4.20;;;33.00;77.50;;;;;;5068566;28;20207;-71
2022/07/19 04:49:21;;;;;;;10.07;3.80;;;33.50;77.00;;;;;;5058403;28;20206;-72
2022/07/19 04:51:46;;;;;;;4.95;3.22;;;34.10;76.20;;;;;;5070502;28;20589;-71
2022/07/19 04:54:12;;;;;;;4.57;3.70;;;34.20;73.90;;;;;;5070736;28;20263;-71
2022/07/19 04:56:37;;;;;;;5.03;3.72;;;34.50;73.40;;;;;;5071183;28;20250;-71
2022/07/19 04:59:03;;;;;;;4.57;3.92;;;34.60;72.90;;;;;;5059612;28;20202;-72
2022/07/19 05:01:30;;;;;;;4.85;4.35;;;34.90;71.90;;;;;;5070684;28;20206;-72
2022/07/19 05:03:56;;;;;;;7.07;3.80;;;35.00;70.90;;;;;;5070184;28;20213;-72
2022/07/19 05:06:24;;;;;;;4.22;2.92;;;35.20;70.40;;;;;;5070498;28;20683;-71
2022/07/19 05:08:51;;;;;;;6.00;3.53;;;35.70;69.40;;;;;;5070852;28;20703;-71
2022/07/19 05:11:16;;;;;;;7.63;4.45;;;35.10;70.50;;;;;;5070669;28;20214;-72
2022/07/19 05:13:42;;;;;;;7.82;3.80;;;35.50;69.80;;;;;;5070233;28;20213;-72
2022/07/19 05:16:07;;;;;;;6.50;4.22;;;36.20;68.30;;;;;;5063162;28;20198;-71
2022/07/19 05:18:33;;;;;;;8.68;3.75;;;35.80;67.60;;;;;;5050166;28;20302;-71
2022/07/19 05:20:58;;;;;;;6.47;4.03;;;36.40;67.00;;;;;;5051656;28;20206;-71
2022/07/19 05:23:24;;;;;;;6.20;3.75;;;36.10;66.20;;;;;;5053753;28;20195;-72
2022/07/19 05:25:49;;;;;;;5.97;3.40;;;36.40;66.00;;;;;;5050374;28;20209;-72
2022/07/19 05:28:15;;;;;;;5.40;3.72;;;36.40;65.90;;;;;;5050209;28;20203;-72
2022/07/19 05:30:42;;;;;;;6.65;3.45;;;36.30;65.20;;;;;;5049695;28;20699;-71
2022/07/19 05:33:07;;;;;;;5.55;3.25;;;36.20;66.10;;;;;;5032700;28;20214;-72
2022/07/19 05:35:33;;;;;;;8.98;3.70;;;35.30;65.90;;;;;;5032349;28;20183;-72
2022/07/19 05:37:59;;;;;;;4.25;3.35;;;34.90;67.10;;;;;;5032505;28;20211;-72
2022/07/19 05:40:24;;;;;;;7.30;3.55;;;34.20;66.90;;;;;;5049826;28;20700;-72
2022/07/19 05:42:50;;;;;;;4.47;3.53;;;34.90;67.30;;;;;;5050616;28;20721;-72
2022/07/19 05:45:15;;;;;;;6.65;3.50;;;35.30;66.90;;;;;;5049323;28;20226;-72
2022/07/19 05:47:41;;;;;;;6.20;3.35;;;35.40;66.50;;;;;;5049999;28;20194;-73
2022/07/19 05:50:07;;;;;;;6.95;3.22;;;35.40;67.20;;;;;;5049789;28;20364;-73
2022/07/19 05:52:32;;;;;;;5.10;3.50;;;35.50;66.30;;;;;;5031623;28;20219;-73
2022/07/19 05:54:58;;;;;;;6.95;3.70;;;36.30;65.90;;;;;;5049999;28;20610;-73
2022/07/19 05:57:23;;;;;;;3.83;3.40;;;36.70;64.60;;;;;;5049354;28;20215;-73
2022/07/19 05:59:49;;;;;;;4.07;3.70;;;36.20;64.30;;;;;;5050117;28;20232;-72
2022/07/19 06:02:16;;;;;;;7.07;3.20;;;36.30;64.80;;;;;;5049688;28;20239;-72
2022/07/19 06:04:41;;;;;;;5.57;3.58;;;36.00;65.10;;;;;;5050408;28;20272;-71
2022/07/19 06:07:07;;;;;;;4.72;3.80;;;36.90;64.40;;;;;;5050324;28;20211;-72
2022/07/19 06:09:33;;;;;;;3.63;3.00;;;36.30;64.10;;;;;;5050937;28;20218;-70
2022/07/19 06:11:58;;;;;;;4.57;3.47;;;36.50;64.60;;;;;;5031906;28;20686;-71
2022/07/19 06:14:24;;;;;;;5.05;3.42;;;36.90;64.00;;;;;;5053439;28;20242;-70
2022/07/19 06:16:49;;;;;;;6.10;3.60;;;37.40;63.10;;;;;;5054986;28;20203;-69
2022/07/19 06:19:15;;;;;;;5.85;3.45;;;37.50;62.30;;;;;;5053840;28;20206;-70
2022/07/19 06:21:41;;;;;;;3.97;3.45;;;37.40;62.50;;;;;;5065965;28;20230;-70
2022/07/19 06:24:06;;;;;;;4.72;3.60;;;37.90;62.10;;;;;;5054103;28;20219;-70
2022/07/19 06:26:32;;;;;;;11.60;4.07;;;37.90;61.90;;;;;;5054223;28;20183;-70
2022/07/19 06:28:58;;;;;;;5.13;3.67;;;38.50;61.60;;;;;;5057245;28;20242;-70
2022/07/19 06:31:23;;;;;;;6.85;4.68;;;39.40;60.20;;;;;;5052937;28;20264;-70
2022/07/19 06:33:50;;;;;;;6.93;3.67;;;39.20;59.70;;;;;;5053540;28;20404;-70
2022/07/19 06:36:17;;;;;;;5.85;3.67;;;39.50;59.60;;;;;;5053662;28;20281;-71
2022/07/19 06:38:43;;;;;;;3.92;3.60;;;39.00;59.30;;;;;;5035666;28;20686;-71
2022/07/19 06:41:10;;;;;;;4.32;3.58;;;39.10;59.10;;;;;;5053260;28;20290;-70
2022/07/19 06:43:36;;;;;;;5.13;3.50;;;39.40;59.40;;;;;;5053172;28;20222;-73
2022/07/19 06:46:02;;;;;;;5.05;3.35;;;40.10;58.20;;;;;;5053843;28;20199;-73
2022/07/19 06:48:28;;;;;;;5.10;3.67;;;39.90;58.30;;;;;;5034978;28;20688;-74
2022/07/19 06:50:53;;;;;;;4.55;4.10;;;39.50;58.20;;;;;;5053757;28;20245;-73
2022/07/19 06:53:19;;;;;;;4.70;3.70;;;39.90;58.30;;;;;;5053149;28;20242;-74
2022/07/19 06:55:44;;;;;;;5.75;3.90;;;40.50;58.00;;;;;;5053346;28;20203;-74
2022/07/19 06:58:10;;;;;;;5.00;3.63;;;40.40;58.10;;;;;;5034961;28;20749;-74
2022/07/19 07:00:36;;;;;;;3.97;3.30;;;41.30;57.40;;;;;;5053116;28;20289;-74
2022/07/19 07:03:01;;;;;;;7.28;4.00;;;41.60;56.80;;;;;;5053213;28;20230;-74
2022/07/19 07:05:27;;;;;;;4.88;4.43;;;41.60;55.90;;;;;;5053509;28;20594;-73
2022/07/19 07:07:54;;;;;;;6.55;4.07;;;42.00;55.50;;;;;;5052928;28;20711;-74
2022/07/19 07:10:20;;;;;;;5.55;4.22;;;42.20;54.40;;;;;;5052899;28;20302;-74
2022/07/19 07:12:45;;;;;;;7.45;4.00;;;41.90;54.40;;;;;;5052648;28;20219;-74
2022/07/19 07:15:12;;;;;;;6.75;3.45;;;41.10;54.80;;;;;;5035078;28;20179;-72
2022/07/19 07:17:38;;;;;;;5.28;3.83;;;41.00;54.80;;;;;;5053462;28;20640;-75
2022/07/19 07:20:05;;;;;;;5.97;3.35;;;42.00;53.90;;;;;;5052315;28;20210;-75
2022/07/19 07:22:31;;;;;;;6.55;3.67;;;41.60;54.00;;;;;;5056865;28;20580;-75
2022/07/19 07:24:57;;;;;;;5.40;3.90;;;41.50;53.90;;;;;;5052703;28;20339;-75
2022/07/19 07:27:23;;;;;;;6.55;3.97;;;41.40;54.40;;;;;;5052132;28;20704;-74
2022/07/19 07:29:48;;;;;;;4.88;3.92;;;41.40;53.80;;;;;;5053345;28;20278;-73
2022/07/19 07:32:14;;;;;;;5.45;4.20;;;41.10;53.50;;;;;;5035236;28;20195;-74
2022/07/19 07:34:39;;;;;;;4.10;3.72;;;41.10;53.90;;;;;;5052628;28;20211;-74
2022/07/19 07:37:05;;;;;;;6.63;3.75;;;41.30;53.70;;;;;;5052821;28;20191;-74
2022/07/19 07:39:31;;;;;;;4.78;3.92;;;41.20;53.80;;;;;;5052229;28;20210;-75
2022/07/19 07:41:56;;;;;;;5.97;3.90;;;41.50;52.90;;;;;;5061215;28;20179;-74
2022/07/19 07:44:22;;;;;;;4.97;3.80;;;41.90;53.50;;;;;;5034732;28;20226;-74
2022/07/19 07:46:47;;;;;;;9.63;4.57;;;41.70;52.80;;;;;;5052875;28;20679;-73
2022/07/19 07:49:13;;;;;;;8.05;3.65;;;41.30;52.50;;;;;;5052170;28;20211;-74
2022/07/19 07:51:38;;;;;;;4.88;4.30;;;41.70;53.00;;;;;;5052106;28;20310;-75
2022/07/19 07:54:04;;;;;;;7.90;3.30;;;41.50;53.30;;;;;;5034091;28;20241;-74
2022/07/19 07:56:30;;;;;;;7.05;3.80;;;41.20;53.30;;;;;;5052935;28;20171;-75
2022/07/19 07:58:55;;;;;;;7.00;3.50;;;41.80;52.40;;;;;;5052504;28;20207;-75
2022/07/19 08:01:21;;;;;;;7.75;3.90;;;41.50;52.60;;;;;;5034628;28;20234;-75
2022/07/19 08:03:46;;;;;;;3.53;3.22;;;41.60;52.90;;;;;;5052621;28;20242;-75
2022/07/19 08:06:12;;;;;;;10.07;3.78;;;41.40;53.10;;;;;;5035683;28;20194;-74
2022/07/19 08:08:38;;;;;;;6.38;3.78;;;41.60;52.90;;;;;;5053708;28;20183;-75
2022/07/19 08:11:04;;;;;;;4.97;3.80;;;41.70;53.50;;;;;;5036361;28;20293;-74
2022/07/19 08:13:30;;;;;;;6.28;4.07;;;42.50;53.00;;;;;;5036369;28;20277;-75
2022/07/19 08:15:55;;;;;;;5.38;3.67;;;42.40;51.90;;;;;;5052491;28;20599;-75
2022/07/19 08:18:22;;;;;;;6.03;4.57;;;42.40;51.70;;;;;;5051283;28;20206;-75
2022/07/19 08:20:48;;;;;;;6.05;3.90;;;42.50;52.30;;;;;;5052602;28;20181;-74
2022/07/19 08:23:13;;;;;;;6.72;3.95;;;43.10;51.70;;;;;;5047326;28;20203;-75
2022/07/19 08:25:39;;;;;;;4.32;4.00;;;42.80;51.90;;;;;;5051760;28;20268;-75
2022/07/19 08:28:04;;;;;;;7.43;4.55;;;42.60;51.70;;;;;;5051444;28;20615;-74
2022/07/19 08:30:30;;;;;;;6.38;4.80;;;43.20;51.70;;;;;;5033539;28;20223;-75
2022/07/19 08:32:56;;;;;;;5.60;3.83;;;41.90;51.30;;;;;;5033751;28;20230;-74
2022/07/19 08:35:22;;;;;;;8.77;4.15;;;41.90;51.80;;;;;;5051773;28;20217;-74
2022/07/19 08:37:47;;;;;;;6.97;3.80;;;41.60;51.90;;;;;;5045963;28;20207;-74
2022/07/19 08:40:13;;;;;;;7.45;3.42;;;40.80;51.50;;;;;;5070691;28;20199;-74
2022/07/19 08:42:39;;;;;;;4.20;2.85;;;40.60;53.10;;;;;;5051812;28;20206;-75
2022/07/19 08:45:09;;;;;;;7.50;3.50;;;40.80;53.00;;;;;;5069220;28;20186;-73
2022/07/19 08:47:36;;;;;;;6.80;3.55;;;41.60;52.60;;;;;;5069862;28;20167;-74
2022/07/19 08:50:05;;;;;;;13.90;8.65;;;41.90;52.40;;;;;;5066731;28;20215;-74
2022/07/19 08:52:35;;;;;;;19.50;15.18;;;42.30;52.40;;;;;;5050735;28;20558;-74
2022/07/19 08:55:01;;;;;;;6.32;3.28;;;41.90;51.70;;;;;;5051227;28;20198;-73
2022/07/19 09:00:12;;;;;;;4.47;3.40;;;41.40;52.50;;;;;;5050806;28;20224;-74
2022/07/19 09:02:37;;;;;;;6.80;3.13;;;40.10;51.70;;;;;;5051680;28;20697;-74
2022/07/19 09:05:07;;;;;;;5.72;3.08;;;39.20;53.70;;;;;;5050956;28;20210;-75
2022/07/19 09:07:36;;;;;;;4.97;3.45;;;39.30;54.10;;;;;;5032791;28;20211;-74
2022/07/19 09:10:22;;;;;;;5.72;3.50;;;40.00;54.00;;;;;;5032668;28;20695;-74
2022/07/19 09:13:03;;;;;;;6.18;3.35;;;40.00;53.10;;;;;;5042736;28;20286;-73
2022/07/19 09:16:07;;;;;;;5.82;2.97;;;39.60;53.10;;;;;;5050708;28;20211;-74
2022/07/19 09:18:35;;;;;;;3.78;2.70;;;40.10;53.90;;;;;;5006814;28;20589;-74
2022/07/19 09:21:05;;;;;;;4.45;2.58;;;40.20;53.20;;;;;;5008619;28;20283;-74
2022/07/19 09:23:32;;;;;;;4.57;2.80;;;40.40;53.00;;;;;;5032378;28;20310;-73
2022/07/19 09:26:00;;;;;;;8.68;3.38;;;40.40;53.10;;;;;;5050727;28;20231;-72
2022/07/19 09:28:29;;;;;;;4.15;2.92;;;40.40;53.20;;;;;;5050270;28;20237;-73
2022/07/19 09:30:56;;;;;;;8.95;3.03;;;40.10;53.00;;;;;;5049903;28;20215;-72
2022/07/19 09:33:23;;;;;;;6.22;3.22;;;40.50;53.20;;;;;;5049970;28;20718;-71
2022/07/19 09:35:56;;;;;;;5.05;2.88;;;40.60;53.60;;;;;;5050707;28;20210;-71
2022/07/19 09:38:27;;;;;;;5.70;3.05;;;40.60;53.40;;;;;;5049990;28;20546;-71
2022/07/19 09:41:10;;;;;;;5.50;2.88;;;40.40;53.20;;;;;;5048043;28;20211;-70
2022/07/19 09:43:59;;;;;;;3.40;2.80;;;39.80;53.00;;;;;;5049293;28;20283;-70
2022/07/19 09:46:37;;;;;;;4.93;2.80;;;39.30;53.70;;;;;;5050511;28;20257;-72
2022/07/19 09:49:08;;;;;;;4.15;2.55;;;38.90;54.60;;;;;;5050233;28;20226;-72
2022/07/19 09:51:38;;;;;;;5.65;3.22;;;38.90;54.40;;;;;;5050933;28;20211;-71
2022/07/19 09:54:05;;;;;;;8.05;2.67;;;38.20;54.80;;;;;;5036263;28;20207;-71
2022/07/19 09:56:32;;;;;;;3.42;2.97;;;38.40;55.00;;;;;;5052382;28;20249;-71
2022/07/19 09:58:58;;;;;;;4.20;2.60;;;38.50;55.10;;;;;;5053652;28;20630;-71
2022/07/19 10:01:25;;;;;;;7.07;3.40;;;38.50;54.50;;;;;;5053843;28;20257;-71
2022/07/19 10:03:56;;;;;;;8.98;3.40;;;38.50;55.10;;;;;;5051520;28;20211;-72
2022/07/19 10:06:23;;;;;;;7.25;4.22;;;38.20;54.30;;;;;;5053775;28;20290;-71
2022/07/19 10:08:50;;;;;;;8.95;3.40;;;38.30;55.10;;;;;;5036482;28;20647;-71
2022/07/19 10:11:17;;;;;;;3.50;3.20;;;38.10;55.50;;;;;;5054195;28;20571;-71
2022/07/19 10:13:43;;;;;;;6.20;3.50;;;37.60;55.20;;;;;;5054821;28;20242;-72
2022/07/19 10:16:17;;;;;;;5.57;3.30;;;37.40;55.80;;;;;;5054429;28;20210;-71
2022/07/19 10:19:01;;;;;;;4.32;3.92;;;37.50;56.30;;;;;;5034540;28;20256;-71
2022/07/19 10:21:27;;;;;;;4.85;2.75;;;36.80;56.10;;;;;;5057341;28;20214;-72
2022/07/19 10:23:53;;;;;;;4.45;3.05;;;37.00;56.80;;;;;;5057691;28;20329;-72
2022/07/19 10:26:39;;;;;;;3.88;2.78;;;37.70;56.10;;;;;;5036151;28;20199;-72
2022/07/19 10:29:15;;;;;;;2.88;2.42;;;37.70;55.00;;;;;;5048933;28;20693;-72
2022/07/19 10:31:43;;;;;;;6.03;2.70;;;37.60;55.40;;;;;;5053317;28;20218;-72
2022/07/19 10:34:22;;;;;;;3.53;2.83;;;37.40;55.90;;;;;;5035665;28;20208;-72
2022/07/19 10:36:49;;;;;;;6.65;2.85;;;37.20;55.70;;;;;;5035730;28;20204;-70
2022/07/19 10:39:17;;;;;;;4.60;3.13;;;37.40;55.60;;;;;;5053232;28;20182;-72
2022/07/19 10:42:20;;;;;;;5.53;2.40;;;37.30;55.30;;;;;;5053929;28;20205;-72
2022/07/19 10:44:55;;;;;;;60.65;46.05;;;37.20;55.60;;;;;;5035798;28;20215;-72
2022/07/19 10:47:32;;;;;;;6.72;4.03;;;37.60;55.70;;;;;;5053440;28;20240;-72
2022/07/19 10:50:16;;;;;;;3.70;3.35;;;37.50;54.90;;;;;;5045168;28;20202;-72
2022/07/19 10:52:42;;;;;;;4.20;2.90;;;37.60;55.00;;;;;;5053071;28;20577;-73
2022/07/19 10:55:18;;;;;;;3.97;2.60;;;37.20;54.60;;;;;;5057814;28;20786;-72
2022/07/19 10:57:52;;;;;;;3.05;2.42;;;37.10;54.00;;;;;;5052951;28;20932;-71
2022/07/19 11:00:28;;;;;;;4.53;3.13;;;36.90;54.30;;;;;;5053086;28;20253;-72
2022/07/19 11:03:22;;;;;;;5.43;4.07;;;37.00;55.10;;;;;;5043836;28;20269;-72
2022/07/19 11:05:55;;;;;;;3.50;2.80;;;37.30;54.00;;;;;;5032334;28;20196;-71
2022/07/19 11:08:38;;;;;;;3.10;2.40;;;37.30;54.20;;;;;;5053394;28;20208;-72
2022/07/19 11:11:06;;;;;;;3.42;3.10;;;36.90;54.00;;;;;;5053480;28;20213;-72
2022/07/19 11:13:32;;;;;;;4.07;2.20;;;36.40;53.80;;;;;;5034560;28;20735;-72
2022/07/19 11:15:58;;;;;;;4.85;2.53;;;35.80;54.30;;;;;;5053160;28;20280;-71
2022/07/19 11:18:24;;;;;;;11.32;3.72;;;35.80;54.90;;;;;;5034533;28;20287;-72
2022/07/19 11:20:50;;;;;;;3.03;2.72;;;36.00;58.40;;;;;;5053803;28;20259;-72
2022/07/19 11:23:22;;;;;;;5.40;2.90;;;36.20;55.40;;;;;;5056721;28;20215;-72
2022/07/19 11:25:51;;;;;;;9.50;3.17;;;36.20;57.20;;;;;;5045546;28;20207;-73
2022/07/19 11:28:22;;;;;;;7.20;3.30;;;36.30;58.70;;;;;;5034862;28;20200;-74
2022/07/19 11:30:47;;;;;;;8.57;3.70;;;36.10;56.30;;;;;;5026738;28;20543;-73
2022/07/19 11:33:17;;;;;;;8.57;3.70;;;36.20;60.40;;;;;;5052207;28;20199;-73
2022/07/19 11:36:15;;;;;;;7.05;3.50;;;36.20;59.20;;;;;;5035019;28;20266;-73
2022/07/19 11:38:44;;;;;;;6.78;3.15;;;36.20;57.00;;;;;;5052458;28;20222;-73
2022/07/19 11:41:14;;;;;;;6.65;3.35;;;36.10;58.30;;;;;;5052311;28;20199;-70
2022/07/19 11:43:41;;;;;;;5.63;2.65;;;35.90;58.90;;;;;;5029118;28;20228;-71
2022/07/19 11:46:06;;;;;;;5.72;2.83;;;36.30;55.80;;;;;;5058654;28;20207;-71
2022/07/19 11:48:32;;;;;;;3.88;2.60;;;36.40;55.20;;;;;;5068062;28;20213;-71
2022/07/19 11:51:03;;;;;;;4.65;2.50;;;36.50;55.30;;;;;;5062159;28;20183;-70
2022/07/19 11:53:29;;;;;;;4.53;2.88;;;36.30;54.40;;;;;;5037825;28;20755;-71
2022/07/19 11:55:56;;;;;;;5.13;4.15;;;36.40;54.50;;;;;;5069296;28;20281;-70
2022/07/19 11:58:21;;;;;;;4.60;2.72;;;36.40;55.10;;;;;;5039600;28;20602;-70
2022/07/19 12:00:47;;;;;;;3.13;2.63;;;36.50;54.90;;;;;;5061734;28;20199;-71
2022/07/19 12:03:18;;;;;;;6.47;2.95;;;36.60;54.40;;;;;;5067526;28;20672;-72
2022/07/19 12:05:55;;;;;;;5.03;2.85;;;36.70;54.60;;;;;;5064191;28;20167;-73
2022/07/19 12:08:20;;;;;;;2.55;2.33;;;36.50;54.00;;;;;;5068241;28;20198;-70
2022/07/19 12:10:53;;;;;;;5.13;3.00;;;36.40;54.60;;;;;;5063313;28;20225;-71
2022/07/19 12:13:30;;;;;;;3.05;2.20;;;36.20;54.30;;;;;;5068418;28;20259;-70
2022/07/19 12:16:00;;;;;;;6.38;3.15;;;35.40;54.60;;;;;;5060659;28;20208;-70
2022/07/19 12:18:55;;;;;;;4.15;2.60;;;35.00;55.10;;;;;;5067181;28;20215;-70
2022/07/19 12:21:21;;;;;;;4.72;2.35;;;34.90;55.20;;;;;;5049444;28;20294;-70
2022/07/19 12:24:13;;;;;;;3.55;2.78;;;34.80;55.20;;;;;;5026766;28;20227;-72
2022/07/19 12:26:40;;;;;;;2.70;2.03;;;34.80;55.20;;;;;;5063668;28;20231;-71
2022/07/19 12:29:22;;;;;;;5.93;2.50;;;34.70;55.00;;;;;;5068552;28;20199;-70
2022/07/19 12:31:49;;;;;;;3.95;2.75;;;34.70;55.40;;;;;;5041242;28;20223;-69
2022/07/19 12:34:16;;;;;;;2.83;2.60;;;34.70;55.30;;;;;;5033012;28;20214;-70
2022/07/19 12:36:41;;;;;;;5.53;3.08;;;34.50;55.40;;;;;;5033168;28;20211;-70
2022/07/19 12:39:20;;;;;;;3.15;2.85;;;34.40;55.80;;;;;;5051195;28;20187;-70
2022/07/19 12:42:16;;;;;;;9.52;3.58;;;34.20;55.70;;;;;;5044048;28;20589;-70
2022/07/19 12:44:42;;;;;;;4.22;2.67;;;34.20;56.00;;;;;;5051452;28;20264;-71
2022/07/19 12:47:07;;;;;;;5.10;2.80;;;34.30;56.00;;;;;;5051315;28;20204;-70
2022/07/19 12:49:48;;;;;;;6.45;2.85;;;34.30;56.00;;;;;;5050922;28;20662;-70
2022/07/19 12:52:13;;;;;;;3.95;2.30;;;34.20;56.00;;;;;;5033453;28;20207;-71
2022/07/19 12:54:39;;;;;;;5.63;2.35;;;34.20;55.80;;;;;;5050890;28;20593;-71